createdAt,value
2018-12-04T00:00:04.290Z,1.47
2018-12-04T00:02:32.847Z,4.57
2018-12-04T00:05:01.327Z,3.07
2018-12-04T00:07:29.868Z,2.20
2018-12-04T00:09:59.215Z,1.53
2018-12-04T00:12:27.679Z,1.93
2018-12-04T00:14:56.172Z,1.43
2018-12-04T00:17:24.723Z,2.97
2018-12-04T00:19:53.415Z,0.80
2018-12-04T00:22:21.979Z,1.83
2018-12-04T00:24:50.524Z,1.90
2018-12-04T00:27:19.016Z,1.17
2018-12-04T00:29:47.486Z,2.80
2018-12-04T00:32:25.548Z,1.00
2018-12-04T00:34:56.376Z,2.40
2018-12-04T00:37:25.132Z,1.60
2018-12-04T00:39:53.849Z,5.27
2018-12-04T00:42:22.294Z,1.73
2018-12-04T00:44:50.854Z,2.87
2018-12-04T00:47:19.979Z,3.63
2018-12-04T00:49:48.467Z,2.93
2018-12-04T00:52:17.124Z,4.03
2018-12-04T00:54:46.164Z,2.63
2018-12-04T00:57:15.095Z,2.30
2018-12-04T00:59:43.574Z,2.27
2018-12-04T01:02:12.083Z,3.10
2018-12-04T01:04:40.776Z,1.73
2018-12-04T01:07:09.255Z,1.97
2018-12-04T01:09:38.628Z,2.27
2018-12-04T01:12:07.364Z,2.83
2018-12-04T01:14:35.862Z,2.33
2018-12-04T01:17:04.748Z,2.43
2018-12-04T01:19:33.491Z,2.83
2018-12-04T01:22:02.051Z,1.20
2018-12-04T01:24:30.472Z,3.50
2018-12-04T01:26:59.748Z,1.47
2018-12-04T01:29:28.357Z,2.30
2018-12-04T01:31:56.951Z,1.30
2018-12-04T01:34:25.585Z,2.50
2018-12-04T01:36:54.030Z,4.73
2018-12-04T01:39:22.543Z,1.77
2018-12-04T01:41:51.348Z,1.20
2018-12-04T01:44:19.862Z,2.77
2018-12-04T01:46:48.411Z,2.03
2018-12-04T01:49:16.982Z,2.87
2018-12-04T01:51:45.570Z,2.37
2018-12-04T01:54:14.720Z,2.03
2018-12-04T01:56:43.568Z,1.73
2018-12-04T01:59:12.159Z,3.50
2018-12-04T02:01:40.734Z,3.83
2018-12-04T02:04:09.415Z,0.90
2018-12-04T02:06:38.017Z,1.67
2018-12-04T02:09:07.550Z,2.40
2018-12-04T02:11:36.364Z,2.63
2018-12-04T02:14:05.195Z,3.83
2018-12-04T02:16:34.418Z,3.43
2018-12-04T02:19:03.024Z,2.50
2018-12-04T02:21:31.815Z,1.90
2018-12-04T02:24:00.379Z,3.77
2018-12-04T02:26:29.198Z,2.90
2018-12-04T02:28:57.651Z,1.40
2018-12-04T02:31:26.277Z,1.50
2018-12-04T02:33:54.864Z,5.57
2018-12-04T02:36:23.424Z,3.10
2018-12-04T02:38:51.996Z,1.47
2018-12-04T02:41:20.504Z,3.80
2018-12-04T02:43:49.144Z,1.70
2018-12-04T02:46:17.659Z,2.70
2018-12-04T02:48:47.223Z,3.80
2018-12-04T02:51:15.828Z,2.47
2018-12-04T02:53:44.296Z,2.70
2018-12-04T02:56:12.877Z,4.10
2018-12-04T02:58:41.393Z,2.57
2018-12-04T03:01:10.077Z,3.00
2018-12-04T03:03:38.545Z,3.40
2018-12-04T03:06:07.040Z,1.97
2018-12-04T03:08:35.556Z,2.37
2018-12-04T03:11:04.175Z,2.60
2018-12-04T03:13:33.256Z,3.37
2018-12-04T03:16:01.739Z,3.00
2018-12-04T03:18:30.272Z,1.63
2018-12-04T03:20:58.735Z,3.13
2018-12-04T03:23:27.612Z,1.37
2018-12-04T03:25:56.042Z,2.93
2018-12-04T03:28:24.619Z,3.03
2018-12-04T03:30:53.124Z,3.40
2018-12-04T03:33:55.607Z,3.20
2018-12-04T03:36:24.067Z,1.80
2018-12-04T03:38:52.612Z,2.13
2018-12-04T03:41:21.274Z,1.70
2018-12-04T03:43:50.193Z,4.13
2018-12-04T03:46:18.745Z,2.53
2018-12-04T03:48:47.437Z,3.23
2018-12-04T03:51:15.936Z,2.27
2018-12-04T03:53:44.468Z,1.77
2018-12-04T03:56:13.141Z,3.90
2018-12-04T03:58:41.642Z,3.57
2018-12-04T04:01:10.207Z,4.73
2018-12-04T04:03:38.792Z,2.90
2018-12-04T04:06:07.381Z,2.70
2018-12-04T04:08:35.851Z,3.00
2018-12-04T04:11:04.428Z,2.73
2018-12-04T04:13:33.448Z,2.10
2018-12-04T04:16:02.582Z,2.83
2018-12-04T04:18:31.143Z,2.33
2018-12-04T04:21:00.367Z,3.90
2018-12-04T04:23:28.892Z,2.77
2018-12-04T04:25:58.184Z,5.07
2018-12-04T04:28:26.707Z,2.97
2018-12-04T04:30:56.156Z,3.73
2018-12-04T04:33:24.847Z,5.93
2018-12-04T04:35:57.059Z,2.47
2018-12-04T04:38:26.356Z,4.90
2018-12-04T04:40:55.613Z,4.17
2018-12-04T04:43:24.304Z,3.60
2018-12-04T04:45:52.849Z,2.80
2018-12-04T04:48:22.281Z,3.70
2018-12-04T04:50:51.095Z,1.37
2018-12-04T04:53:19.703Z,3.17
2018-12-04T04:55:48.244Z,2.80
2018-12-04T04:58:16.847Z,4.00
2018-12-04T05:00:45.336Z,1.90
2018-12-04T05:03:13.967Z,2.27
2018-12-04T05:05:42.558Z,3.17
2018-12-04T05:08:11.090Z,3.13
2018-12-04T05:10:39.581Z,2.07
2018-12-04T05:13:08.708Z,2.00
2018-12-04T05:15:37.981Z,4.13
2018-12-04T05:18:07.024Z,2.90
2018-12-04T05:20:36.296Z,3.00
2018-12-04T05:23:05.418Z,3.50
2018-12-04T05:25:34.060Z,2.70
2018-12-04T05:28:02.803Z,3.97
2018-12-04T05:30:31.301Z,3.40
2018-12-04T05:32:59.807Z,3.73
2018-12-04T05:35:28.697Z,4.13
2018-12-04T05:37:57.508Z,3.73
2018-12-04T05:40:26.043Z,3.73
2018-12-04T05:42:54.650Z,4.17
2018-12-04T05:45:23.756Z,3.17
2018-12-04T05:47:52.948Z,2.90
2018-12-04T05:50:21.586Z,2.13
2018-12-04T05:53:58.896Z,1.83
2018-12-04T05:56:27.477Z,3.70
2018-12-04T05:58:56.578Z,2.90
2018-12-04T06:01:25.464Z,2.93
2018-12-04T06:03:54.507Z,3.20
2018-12-04T06:06:23.093Z,2.03
2018-12-04T06:08:52.133Z,1.67
2018-12-04T06:11:20.697Z,1.60
2018-12-04T06:13:49.496Z,3.80
2018-12-04T06:16:17.965Z,2.23
2018-12-04T06:18:46.509Z,2.00
2018-12-04T06:22:18.136Z,3.33
2018-12-04T06:24:46.776Z,1.37
2018-12-04T06:27:15.445Z,1.50
2018-12-04T06:29:44.216Z,2.03
2018-12-04T06:32:13.113Z,2.23
2018-12-04T06:34:42.247Z,2.17
2018-12-04T06:37:10.961Z,1.87
2018-12-04T06:39:39.450Z,2.33
2018-12-04T06:42:08.267Z,2.83
2018-12-04T06:44:36.747Z,2.60
2018-12-04T06:47:07.051Z,1.67
2018-12-04T06:49:36.200Z,3.27
2018-12-04T06:52:05.128Z,2.87
2018-12-04T06:54:34.018Z,1.77
2018-12-04T06:57:02.819Z,2.60
2018-12-04T06:59:31.359Z,3.70
2018-12-04T07:01:59.829Z,1.13
2018-12-04T07:04:28.519Z,1.60
2018-12-04T07:06:57.283Z,3.13
2018-12-04T07:09:26.086Z,1.07
2018-12-04T07:11:54.719Z,2.00
2018-12-04T07:14:23.884Z,1.53
2018-12-04T07:16:52.632Z,4.30
2018-12-04T07:19:21.232Z,2.80
2018-12-04T07:21:50.113Z,1.80
2018-12-04T07:24:19.360Z,1.23
2018-12-04T07:26:47.873Z,1.03
2018-12-04T07:29:17.065Z,3.03
2018-12-04T07:31:45.629Z,4.50
2018-12-04T07:34:14.288Z,2.67
2018-12-04T07:36:43.137Z,3.13
2018-12-04T07:39:12.004Z,1.90
2018-12-04T07:41:40.619Z,2.73
2018-12-04T07:44:09.104Z,2.30
2018-12-04T07:46:37.680Z,2.70
2018-12-04T07:49:06.893Z,1.57
2018-12-04T07:51:35.880Z,1.87
2018-12-04T07:54:05.192Z,1.87
2018-12-04T07:56:33.723Z,2.27
2018-12-04T07:59:02.173Z,3.00
2018-12-04T08:01:31.074Z,1.50
2018-12-04T08:04:00.735Z,2.57
2018-12-04T08:06:29.220Z,3.03
2018-12-04T08:08:58.612Z,1.73
2018-12-04T08:11:27.340Z,2.50
2018-12-04T08:13:55.996Z,2.30
2018-12-04T08:16:24.466Z,2.07
2018-12-04T08:18:53.644Z,1.53
2018-12-04T08:21:22.188Z,1.43
2018-12-04T08:23:50.639Z,1.63
2018-12-04T08:26:19.085Z,1.33
2018-12-04T08:28:47.869Z,1.77
2018-12-04T08:31:16.438Z,6.10
2018-12-04T08:33:45.883Z,3.30
2018-12-04T08:36:14.330Z,2.70
2018-12-04T08:38:43.065Z,1.97
2018-12-04T08:41:11.627Z,1.60
2018-12-04T08:43:40.930Z,2.87
2018-12-04T08:46:09.756Z,2.97
2018-12-04T08:48:38.211Z,2.00
2018-12-04T08:51:07.137Z,2.53
2018-12-04T08:53:36.311Z,1.80
2018-12-04T08:56:09.825Z,1.37
2018-12-04T08:58:39.051Z,2.80
2018-12-04T09:01:07.523Z,2.50
2018-12-04T09:03:36.119Z,1.93
2018-12-04T09:06:06.793Z,4.17
2018-12-04T09:08:35.516Z,1.80
2018-12-04T09:11:04.186Z,2.23
2018-12-04T09:13:32.814Z,4.70
2018-12-04T09:16:01.600Z,3.70
2018-12-04T09:18:30.357Z,3.20
2018-12-04T09:20:59.130Z,2.17
2018-12-04T09:23:28.379Z,4.30
2018-12-04T09:25:57.187Z,2.40
2018-12-04T09:28:25.752Z,3.67
2018-12-04T09:30:54.968Z,2.37
2018-12-04T09:33:23.709Z,3.07
2018-12-04T09:35:52.445Z,2.33
2018-12-04T09:38:20.983Z,2.07
2018-12-04T09:40:50.956Z,3.93
2018-12-04T09:43:19.451Z,1.73
2018-12-04T09:45:48.304Z,5.20
2018-12-04T09:48:18.304Z,1.63
2018-12-04T09:50:46.965Z,2.03
2018-12-04T09:53:16.270Z,2.83
2018-12-04T09:55:44.822Z,2.27
2018-12-04T09:58:14.071Z,2.23
2018-12-04T10:00:42.652Z,1.57
2018-12-04T10:03:11.807Z,1.77
2018-12-04T10:05:40.360Z,2.83
2018-12-04T10:08:09.481Z,4.70
2018-12-04T10:10:38.584Z,4.00
2018-12-04T10:13:07.199Z,3.23
2018-12-04T10:15:35.690Z,4.20
2018-12-04T10:18:05.861Z,1.93
2018-12-04T10:20:36.726Z,2.33
2018-12-04T10:23:05.424Z,5.83
2018-12-04T10:25:33.987Z,2.07
2018-12-04T10:28:02.435Z,3.20
2018-12-04T10:30:31.075Z,4.83
2018-12-04T10:32:59.809Z,2.20
2018-12-04T10:35:28.856Z,3.87
2018-12-04T10:37:57.494Z,4.50
2018-12-04T10:40:25.950Z,2.47
2018-12-04T10:42:54.543Z,2.13
2018-12-04T10:45:23.795Z,3.87
2018-12-04T10:47:53.284Z,4.83
2018-12-04T10:50:21.777Z,5.27
2018-12-04T10:52:50.385Z,5.83
2018-12-04T10:55:18.936Z,4.00
2018-12-04T10:57:48.015Z,5.77
2018-12-04T11:00:21.945Z,2.90
2018-12-04T11:02:50.960Z,3.07
2018-12-04T11:05:19.556Z,4.20
2018-12-04T11:07:48.274Z,4.77
2018-12-04T11:10:16.808Z,3.80
2018-12-04T11:12:45.614Z,5.00
2018-12-04T11:15:14.364Z,3.17
2018-12-04T11:17:43.660Z,2.27
2018-12-04T11:20:12.297Z,3.60
2018-12-04T11:23:44.225Z,3.07
2018-12-04T11:26:12.820Z,3.60
2018-12-04T11:28:41.709Z,4.90
2018-12-04T11:31:10.257Z,3.77
2018-12-04T11:33:38.746Z,4.00
2018-12-04T11:36:07.825Z,3.20
2018-12-04T11:38:36.410Z,4.03
2018-12-04T11:41:04.828Z,4.90
2018-12-04T11:43:33.412Z,3.07
2018-12-04T11:46:01.892Z,3.43
2018-12-04T11:48:30.516Z,4.43
2018-12-04T11:51:00.313Z,3.40
2018-12-04T11:53:29.077Z,3.67
2018-12-04T11:55:57.728Z,4.20
2018-12-04T11:58:27.045Z,3.50
2018-12-04T12:00:56.842Z,5.10
2018-12-04T12:03:25.404Z,2.23
2018-12-04T12:05:53.901Z,3.37
2018-12-04T12:08:22.504Z,4.13
2018-12-04T12:10:51.082Z,5.53
2018-12-04T12:13:19.533Z,3.47
2018-12-04T12:15:48.648Z,4.57
2018-12-04T12:18:17.662Z,4.13
2018-12-04T12:20:46.255Z,4.63
2018-12-04T12:23:21.376Z,5.83
2018-12-04T12:25:55.040Z,4.70
2018-12-04T12:28:23.489Z,4.67
2018-12-04T12:30:52.397Z,2.87
2018-12-04T12:33:20.905Z,2.80
2018-12-04T12:35:49.760Z,3.67
2018-12-04T12:38:18.234Z,3.13
2018-12-04T12:40:47.428Z,5.53
2018-12-04T12:43:16.813Z,4.27
2018-12-04T12:45:45.278Z,4.20
2018-12-04T12:48:13.900Z,3.00
2018-12-04T12:50:42.452Z,3.53
2018-12-04T12:53:11.050Z,4.30
2018-12-04T12:55:39.753Z,2.67
2018-12-04T12:58:08.324Z,2.80
2018-12-04T13:00:37.492Z,3.77
2018-12-04T13:03:06.743Z,4.40
2018-12-04T13:05:35.546Z,3.87
2018-12-04T13:08:04.351Z,2.70
2018-12-04T13:10:32.987Z,2.93
2018-12-04T13:13:02.614Z,6.93
2018-12-04T13:15:31.123Z,6.40
2018-12-04T13:17:59.843Z,4.17
2018-12-04T13:20:28.566Z,3.70
2018-12-04T13:22:57.111Z,5.83
2018-12-04T13:25:25.938Z,4.97
2018-12-04T13:27:54.417Z,4.77
2018-12-04T13:30:23.043Z,7.77
2018-12-04T13:32:51.756Z,5.80
2018-12-04T13:35:20.297Z,6.00
2018-12-04T13:37:48.964Z,5.33
2018-12-04T13:40:18.279Z,5.20
2018-12-04T13:42:46.891Z,5.37
2018-12-04T13:45:15.824Z,4.70
2018-12-04T13:47:45.073Z,11.40
2018-12-04T13:50:14.040Z,11.73
2018-12-04T13:52:43.421Z,7.43
2018-12-04T13:55:12.093Z,3.40
2018-12-04T13:57:40.698Z,3.43
2018-12-04T14:00:09.901Z,3.37
2018-12-04T14:02:38.804Z,4.77
2018-12-04T14:05:09.139Z,2.80
2018-12-04T14:07:37.765Z,1.87
2018-12-04T14:10:08.756Z,2.20
2018-12-04T14:12:37.454Z,3.43
2018-12-04T14:15:06.297Z,1.90
2018-12-04T14:17:35.013Z,3.13
2018-12-04T14:20:04.165Z,2.10
2018-12-04T14:22:33.005Z,2.07
2018-12-04T14:25:02.481Z,2.50
2018-12-04T14:27:31.270Z,2.10
2018-12-04T14:30:00.063Z,2.53
2018-12-04T14:32:28.753Z,2.73
2018-12-04T14:34:57.529Z,2.47
2018-12-04T14:37:26.280Z,1.83
2018-12-04T14:39:55.024Z,3.67
2018-12-04T14:42:24.015Z,3.83
2018-12-04T14:44:52.785Z,3.57
2018-12-04T14:47:21.942Z,3.93
2018-12-04T14:49:50.698Z,5.27
2018-12-04T14:52:19.352Z,2.90
2018-12-04T14:54:49.095Z,2.77
2018-12-04T14:57:18.171Z,4.73
2018-12-04T14:59:48.060Z,4.30
2018-12-04T15:02:17.825Z,5.20
2018-12-04T15:04:46.877Z,7.47
2018-12-04T15:07:15.522Z,8.53
2018-12-04T15:09:44.344Z,7.43
2018-12-04T15:12:13.642Z,2.93
2018-12-04T15:14:42.668Z,4.47
2018-12-04T15:17:12.168Z,3.97
2018-12-04T15:19:40.940Z,3.00
2018-12-04T15:22:09.709Z,4.13
2018-12-04T15:24:38.499Z,6.07
2018-12-04T15:27:07.396Z,5.20
2018-12-04T15:29:36.661Z,3.73
2018-12-04T15:32:05.376Z,6.80
2018-12-04T15:34:34.089Z,5.07
2018-12-04T15:37:02.891Z,4.93
2018-12-04T15:39:31.693Z,4.23
2018-12-04T15:42:00.432Z,5.27
2018-12-04T15:44:28.897Z,5.00
2018-12-04T15:46:58.349Z,3.43
2018-12-04T15:49:27.092Z,4.20
2018-12-04T15:51:56.121Z,4.40
2018-12-04T15:54:24.750Z,4.23
2018-12-04T15:56:53.693Z,5.50
2018-12-04T15:59:23.021Z,3.47
2018-12-04T16:01:52.114Z,5.50
2018-12-04T16:04:20.643Z,4.70
2018-12-04T16:06:49.228Z,3.47
2018-12-04T16:09:17.836Z,5.77
2018-12-04T16:11:46.992Z,2.37
2018-12-04T16:14:15.549Z,4.00
2018-12-04T16:16:44.059Z,3.57
2018-12-04T16:19:12.627Z,3.27
2018-12-04T16:21:41.154Z,2.60
2018-12-04T16:24:10.388Z,2.43
2018-12-04T16:26:39.496Z,2.73
2018-12-04T16:29:08.516Z,2.37
2018-12-04T16:31:37.631Z,4.27
2018-12-04T16:34:06.501Z,4.97
2018-12-04T16:36:35.232Z,6.70
2018-12-04T16:39:05.781Z,5.03
2018-12-04T16:41:34.309Z,5.93
2018-12-04T16:44:02.945Z,6.67
2018-12-04T16:46:31.632Z,5.53
2018-12-04T16:49:00.150Z,4.00
2018-12-04T16:51:29.298Z,5.07
2018-12-04T16:53:57.961Z,2.57
2018-12-04T16:56:27.164Z,4.27
2018-12-04T16:58:55.699Z,4.00
2018-12-04T17:01:24.664Z,4.90
2018-12-04T17:03:53.354Z,3.90
2018-12-04T17:06:22.714Z,6.70
2018-12-04T17:08:51.248Z,4.00
2018-12-04T17:11:19.974Z,7.97
2018-12-04T17:13:48.714Z,7.20
2018-12-04T17:16:17.377Z,4.93
2018-12-04T17:18:46.161Z,9.23
2018-12-04T17:21:14.754Z,7.73
2018-12-04T17:23:43.431Z,6.73
2018-12-04T17:26:12.042Z,4.57
2018-12-04T17:28:41.335Z,5.73
2018-12-04T17:31:10.412Z,7.10
2018-12-04T17:33:45.642Z,5.57
2018-12-04T17:36:14.780Z,4.53
2018-12-04T17:38:43.768Z,7.83
2018-12-04T17:41:12.679Z,8.37
2018-12-04T17:43:41.482Z,5.30
2018-12-04T17:46:10.226Z,7.50
2018-12-04T17:48:39.809Z,5.37
2018-12-04T17:51:08.684Z,5.70
2018-12-04T17:53:37.458Z,4.57
2018-12-04T17:56:06.122Z,4.63
2018-12-04T17:58:34.937Z,8.03
2018-12-04T18:01:03.708Z,7.00
2018-12-04T18:03:32.495Z,6.43
2018-12-04T18:06:01.246Z,4.90
2018-12-04T18:08:30.649Z,9.03
2018-12-04T18:10:59.540Z,7.70
2018-12-04T18:13:28.142Z,10.30
2018-12-04T18:15:56.939Z,8.87
2018-12-04T18:18:25.639Z,6.70
2018-12-04T18:20:55.080Z,5.53
2018-12-04T18:23:23.889Z,8.33
2018-12-04T18:25:52.551Z,9.53
2018-12-04T18:28:22.690Z,9.80
2018-12-04T18:30:51.725Z,9.83
2018-12-04T18:33:21.064Z,7.60
2018-12-04T18:35:50.006Z,5.20
2018-12-04T18:38:19.772Z,7.80
2018-12-04T18:40:48.576Z,9.27
2018-12-04T18:43:17.210Z,6.03
2018-12-04T18:45:46.150Z,6.97
2018-12-04T18:48:15.244Z,5.30
2018-12-04T18:50:43.919Z,7.90
2018-12-04T18:53:12.784Z,6.63
2018-12-04T18:55:41.821Z,6.27
2018-12-04T18:58:10.739Z,5.53
2018-12-04T19:00:39.618Z,5.37
2018-12-04T19:03:08.233Z,6.87
2018-12-04T19:05:36.975Z,7.33
2018-12-04T19:08:05.766Z,12.80
2018-12-04T19:10:34.364Z,15.57
2018-12-04T19:13:03.213Z,20.90
2018-12-04T19:15:32.042Z,11.30
2018-12-04T19:18:00.707Z,9.70
2018-12-04T19:20:29.504Z,18.90
2018-12-04T19:22:58.136Z,14.60
2018-12-04T19:25:26.820Z,17.63
2018-12-04T19:27:56.103Z,14.10
2018-12-04T19:30:24.782Z,14.80
2018-12-04T19:32:53.419Z,13.93
2018-12-04T19:35:22.038Z,14.60
2018-12-04T19:37:50.758Z,12.60
2018-12-04T19:40:20.167Z,9.50
2018-12-04T19:42:48.851Z,7.50
2018-12-04T19:45:17.579Z,11.50
2018-12-04T19:47:46.939Z,7.73
2018-12-04T19:50:16.236Z,14.23
2018-12-04T19:52:45.078Z,14.87
2018-12-04T19:55:14.387Z,15.87
2018-12-04T19:57:44.063Z,16.43
2018-12-04T20:00:13.093Z,16.30
2018-12-04T20:02:41.876Z,13.30
2018-12-04T20:05:11.194Z,12.40
2018-12-04T20:07:39.698Z,9.93
2018-12-04T20:10:08.345Z,14.70
2018-12-04T20:12:36.956Z,15.17
2018-12-04T20:15:06.384Z,13.23
2018-12-04T20:17:35.106Z,11.83
2018-12-04T20:20:04.762Z,21.73
2018-12-04T20:22:33.346Z,20.10
2018-12-04T20:25:01.949Z,16.13
2018-12-04T20:27:30.754Z,16.13
2018-12-04T20:29:59.386Z,17.63
2018-12-04T20:32:28.800Z,18.00
2018-12-04T20:34:58.479Z,17.87
2018-12-04T20:37:27.296Z,15.97
2018-12-04T20:39:56.148Z,21.80
2018-12-04T20:42:24.858Z,13.77
2018-12-04T20:44:53.451Z,13.47
2018-12-04T20:47:22.448Z,14.03
2018-12-04T20:49:51.716Z,12.57
2018-12-04T20:52:23.054Z,18.03
2018-12-04T20:54:52.968Z,13.50
2018-12-04T20:57:21.828Z,11.77
2018-12-04T20:59:50.415Z,11.70
2018-12-04T21:02:19.443Z,10.60
2018-12-04T21:04:48.428Z,15.23
2018-12-04T21:07:17.056Z,12.70
2018-12-04T21:09:46.237Z,11.80
2018-12-04T21:12:16.647Z,18.60
2018-12-04T21:14:45.729Z,20.53
2018-12-04T21:17:14.363Z,15.83
2018-12-04T21:19:42.872Z,11.63
2018-12-04T21:22:11.467Z,20.33
2018-12-04T21:24:40.016Z,12.27
2018-12-04T21:27:12.898Z,18.60
2018-12-04T21:29:46.816Z,20.03
2018-12-04T21:32:20.753Z,19.70
2018-12-04T21:34:54.593Z,20.47
2018-12-04T21:37:28.363Z,18.50
2018-12-04T21:40:02.247Z,23.93
2018-12-04T21:42:36.308Z,14.17
2018-12-04T21:45:10.645Z,18.57
2018-12-04T21:47:44.324Z,18.77
2018-12-04T21:50:19.694Z,13.93
2018-12-04T21:52:48.420Z,14.33
2018-12-04T21:55:17.087Z,12.37
2018-12-04T21:57:46.027Z,13.30
2018-12-04T22:00:15.512Z,20.67
2018-12-04T22:02:44.413Z,15.73
2018-12-04T22:05:12.976Z,12.50
2018-12-04T22:07:41.578Z,20.70
2018-12-04T22:10:10.567Z,19.20
2018-12-04T22:12:39.066Z,13.53
2018-12-04T22:15:08.024Z,16.57
2018-12-04T22:17:37.444Z,15.53
2018-12-04T22:20:06.767Z,13.03
2018-12-04T22:22:35.720Z,13.90
2018-12-04T22:25:04.956Z,10.77
2018-12-04T22:27:34.320Z,11.73
2018-12-04T22:30:03.264Z,22.03
2018-12-04T22:32:31.715Z,16.33
2018-12-04T22:35:00.403Z,20.50
2018-12-04T22:37:29.079Z,18.37
2018-12-04T22:39:57.798Z,11.97
2018-12-04T22:42:26.927Z,13.10
2018-12-04T22:44:59.660Z,17.87
2018-12-04T22:47:28.900Z,16.73
2018-12-04T22:49:57.436Z,18.13
2018-12-04T22:52:26.046Z,14.23
2018-12-04T22:54:54.537Z,15.27
2018-12-04T22:57:23.812Z,13.97
2018-12-04T22:59:52.291Z,11.10
2018-12-04T23:02:20.733Z,17.90
2018-12-04T23:04:49.512Z,18.60
2018-12-04T23:07:18.248Z,17.00
2018-12-04T23:09:46.815Z,18.83
2018-12-04T23:12:16.247Z,15.13
2018-12-04T23:14:44.764Z,16.00
2018-12-04T23:17:13.500Z,21.03
2018-12-04T23:19:42.771Z,14.17
2018-12-04T23:22:11.792Z,14.17
2018-12-04T23:24:40.427Z,17.67
2018-12-04T23:27:09.135Z,17.70
2018-12-04T23:29:37.824Z,10.23
2018-12-04T23:32:07.123Z,17.57
2018-12-04T23:34:36.496Z,20.80
2018-12-04T23:37:05.577Z,16.40
2018-12-04T23:39:34.116Z,17.33
2018-12-04T23:42:02.827Z,26.30
2018-12-04T23:44:31.527Z,19.67
2018-12-04T23:47:00.046Z,20.47
2018-12-04T23:49:28.578Z,22.37
2018-12-04T23:51:57.108Z,16.33
2018-12-04T23:54:25.828Z,17.47
2018-12-04T23:56:54.360Z,19.53
2018-12-04T23:59:22.792Z,21.07
